createdAt,value
2022-07-27T00:01:51.818Z,17.23
2022-07-27T00:04:20.803Z,18.97
2022-07-27T00:06:48.054Z,19.00
2022-07-27T00:09:15.766Z,19.27
2022-07-27T00:11:42.875Z,18.27
2022-07-27T00:14:09.764Z,17.47
2022-07-27T00:16:36.906Z,19.20
2022-07-27T00:19:03.996Z,18.80
2022-07-27T00:21:30.886Z,18.87
2022-07-27T00:23:57.747Z,17.73
2022-07-27T00:26:24.678Z,17.40
2022-07-27T00:28:51.549Z,16.70
2022-07-27T00:31:18.735Z,18.83
2022-07-27T00:33:46.129Z,14.67
2022-07-27T00:36:13.082Z,15.57
2022-07-27T00:38:40.036Z,13.83
2022-07-27T00:41:07.140Z,11.43
2022-07-27T00:43:48.972Z,13.87
2022-07-27T00:46:15.941Z,9.87
2022-07-27T00:48:43.015Z,10.27
2022-07-27T00:51:11.082Z,11.03
2022-07-27T00:53:38.615Z,11.47
2022-07-27T00:56:05.942Z,13.17
2022-07-27T00:58:33.273Z,13.50
2022-07-27T01:01:00.104Z,13.20
2022-07-27T01:03:29.682Z,12.43
2022-07-27T01:06:01.897Z,13.17
2022-07-27T01:08:29.321Z,11.90
2022-07-27T01:10:57.870Z,9.47
2022-07-27T01:13:29.284Z,12.03
2022-07-27T01:15:57.047Z,9.07
2022-07-27T01:18:30.201Z,12.37
2022-07-27T01:20:57.989Z,8.90
2022-07-27T01:23:25.673Z,7.63
2022-07-27T01:25:52.850Z,9.03
2022-07-27T01:28:19.775Z,10.13
2022-07-27T01:30:47.022Z,8.73
2022-07-27T01:33:16.809Z,7.40
2022-07-27T01:35:43.711Z,7.17
2022-07-27T01:38:12.373Z,7.07
2022-07-27T01:40:39.956Z,8.27
2022-07-27T01:43:07.010Z,5.87
2022-07-27T01:45:34.359Z,10.27
2022-07-27T01:48:01.619Z,7.43
2022-07-27T01:50:31.199Z,7.37
2022-07-27T01:52:58.454Z,6.17
2022-07-27T01:55:25.438Z,6.93
2022-07-27T01:57:52.545Z,10.57
2022-07-27T02:00:19.613Z,7.33
2022-07-27T02:02:46.523Z,6.67
2022-07-27T02:05:13.513Z,5.97
2022-07-27T02:07:42.017Z,5.83
2022-07-27T02:10:10.148Z,8.77
2022-07-27T02:12:38.159Z,9.53
2022-07-27T02:15:15.104Z,7.13
2022-07-27T02:17:45.019Z,5.80
2022-07-27T02:20:14.522Z,5.33
2022-07-27T02:22:42.140Z,7.43
2022-07-27T02:25:10.428Z,5.63
2022-07-27T02:27:37.623Z,9.13
2022-07-27T02:30:05.578Z,6.27
2022-07-27T02:32:33.066Z,6.13
2022-07-27T02:35:00.117Z,7.03
2022-07-27T02:37:30.007Z,6.63
2022-07-27T02:39:56.987Z,5.90
2022-07-27T02:42:23.836Z,5.60
2022-07-27T02:44:51.238Z,8.17
2022-07-27T02:47:18.367Z,7.20
2022-07-27T02:49:45.183Z,6.23
2022-07-27T02:52:12.037Z,6.00
2022-07-27T02:54:38.846Z,6.50
2022-07-27T02:57:05.678Z,6.17
2022-07-27T02:59:32.552Z,6.23
2022-07-27T03:01:59.489Z,4.83
2022-07-27T03:04:27.053Z,11.70
2022-07-27T03:06:54.172Z,6.43
2022-07-27T03:09:33.317Z,8.20
2022-07-27T03:12:01.075Z,5.17
2022-07-27T03:14:28.609Z,5.90
2022-07-27T03:16:55.452Z,3.47
2022-07-27T03:19:24.673Z,4.00
2022-07-27T03:21:55.167Z,4.57
2022-07-27T03:24:21.970Z,3.67
2022-07-27T03:26:49.022Z,6.57
2022-07-27T03:29:15.930Z,4.00
2022-07-27T03:31:44.342Z,5.20
2022-07-27T03:34:11.374Z,5.70
2022-07-27T03:36:38.268Z,7.43
2022-07-27T03:39:06.369Z,5.00
2022-07-27T03:41:33.305Z,5.93
2022-07-27T03:44:00.150Z,5.70
2022-07-27T03:46:27.085Z,7.47
2022-07-27T03:48:54.004Z,5.97
2022-07-27T03:51:22.016Z,7.90
2022-07-27T03:53:49.538Z,4.87
2022-07-27T03:56:19.242Z,4.13
2022-07-27T03:58:46.434Z,4.23
2022-07-27T04:01:13.354Z,6.07
2022-07-27T04:03:44.199Z,4.10
2022-07-27T04:06:11.476Z,5.30
2022-07-27T04:08:38.619Z,3.57
2022-07-27T04:11:06.367Z,6.63
2022-07-27T04:13:34.668Z,3.83
2022-07-27T04:16:05.368Z,4.50
2022-07-27T04:18:32.303Z,3.07
2022-07-27T04:21:01.985Z,5.43
2022-07-27T04:23:28.987Z,3.67
2022-07-27T04:25:55.911Z,4.33
2022-07-27T04:28:22.743Z,6.80
2022-07-27T04:30:50.013Z,3.57
2022-07-27T04:33:17.745Z,3.57
2022-07-27T04:35:44.934Z,3.23
2022-07-27T04:38:11.791Z,2.70
2022-07-27T04:40:38.594Z,4.30
2022-07-27T04:43:07.678Z,4.13
2022-07-27T04:45:35.283Z,4.33
2022-07-27T04:48:07.295Z,3.13
2022-07-27T04:50:43.243Z,4.83
2022-07-27T04:53:13.991Z,3.23
2022-07-27T04:55:45.918Z,6.17
2022-07-27T04:58:14.012Z,2.90
2022-07-27T05:00:41.112Z,8.87
2022-07-27T05:03:08.296Z,2.83
2022-07-27T05:05:35.252Z,3.53
2022-07-27T05:08:02.825Z,2.33
2022-07-27T05:10:29.784Z,5.67
2022-07-27T05:12:57.050Z,7.73
2022-07-27T05:15:24.132Z,4.03
2022-07-27T05:17:52.305Z,6.23
2022-07-27T05:20:20.826Z,5.63
2022-07-27T05:22:47.654Z,4.00
2022-07-27T05:25:14.558Z,5.80
2022-07-27T05:27:51.039Z,4.60
2022-07-27T05:30:24.052Z,5.53
2022-07-27T05:32:51.113Z,2.57
2022-07-27T05:35:18.381Z,6.60
2022-07-27T05:37:46.392Z,3.67
2022-07-27T05:40:13.804Z,4.50
2022-07-27T05:42:44.202Z,3.17
2022-07-27T05:45:12.391Z,3.53
2022-07-27T05:47:39.891Z,2.87
2022-07-27T05:50:07.609Z,5.77
2022-07-27T05:52:34.836Z,6.43
2022-07-27T05:55:01.767Z,3.07
2022-07-27T05:57:28.695Z,4.97
2022-07-27T05:59:58.244Z,5.37
2022-07-27T06:02:25.631Z,1.53
2022-07-27T06:04:56.968Z,2.70
2022-07-27T06:10:43.170Z,5.33
2022-07-27T06:13:14.351Z,6.53
2022-07-27T06:15:41.392Z,4.33
2022-07-27T06:18:15.044Z,6.77
2022-07-27T06:20:43.220Z,3.17
2022-07-27T06:23:11.208Z,3.43
2022-07-27T06:25:38.132Z,4.37
2022-07-27T06:28:05.611Z,4.70
2022-07-27T06:30:33.309Z,4.03
2022-07-27T06:33:00.455Z,3.20
2022-07-27T06:35:27.561Z,6.20
2022-07-27T06:37:54.513Z,4.43
2022-07-27T06:40:21.694Z,4.80
2022-07-27T06:42:48.736Z,3.63
2022-07-27T06:45:15.782Z,5.47
2022-07-27T06:47:48.746Z,5.67
2022-07-27T06:50:18.265Z,4.20
2022-07-27T06:52:45.222Z,2.47
2022-07-27T06:55:12.640Z,4.53
2022-07-27T06:57:39.510Z,4.17
2022-07-27T07:00:07.318Z,5.53
2022-07-27T07:02:34.150Z,6.13
2022-07-27T07:05:00.999Z,5.60
2022-07-27T07:07:27.842Z,4.03
2022-07-27T07:09:54.715Z,4.60
2022-07-27T07:12:21.531Z,4.33
2022-07-27T07:14:48.398Z,4.60
2022-07-27T07:17:15.303Z,3.10
2022-07-27T07:19:42.145Z,5.40
2022-07-27T07:22:08.981Z,3.73
2022-07-27T07:24:36.446Z,5.33
2022-07-27T07:27:03.350Z,5.37
2022-07-27T07:29:30.184Z,8.10
2022-07-27T07:31:57.348Z,5.43
2022-07-27T07:34:24.287Z,7.40
2022-07-27T07:36:51.171Z,6.03
2022-07-27T07:39:17.989Z,5.20
2022-07-27T07:41:44.799Z,3.77
2022-07-27T07:44:11.730Z,4.80
2022-07-27T07:46:41.492Z,4.63
2022-07-27T07:49:12.000Z,4.83
2022-07-27T07:51:39.047Z,5.10
2022-07-27T07:54:05.915Z,3.73
2022-07-27T07:56:32.784Z,6.87
2022-07-27T07:58:59.898Z,4.17
2022-07-27T08:01:26.955Z,6.47
2022-07-27T08:03:53.986Z,5.30
2022-07-27T08:06:20.880Z,3.93
2022-07-27T08:08:47.977Z,4.23
2022-07-27T08:11:14.971Z,5.27
2022-07-27T08:13:42.580Z,4.70
2022-07-27T08:16:09.672Z,4.07
2022-07-27T08:18:36.526Z,5.33
2022-07-27T08:21:03.518Z,4.30
2022-07-27T08:23:32.061Z,5.63
2022-07-27T08:26:02.851Z,3.73
2022-07-27T08:28:36.911Z,5.67
2022-07-27T08:31:13.860Z,5.93
2022-07-27T08:33:41.915Z,4.28
2022-07-27T08:36:08.850Z,3.08
2022-07-27T08:38:35.670Z,6.38
2022-07-27T08:41:03.949Z,5.43
2022-07-27T08:43:32.405Z,3.33
2022-07-27T08:46:01.270Z,3.60
2022-07-27T08:48:31.027Z,5.28
2022-07-27T08:50:58.896Z,4.55
2022-07-27T08:53:52.526Z,4.03
2022-07-27T08:56:20.086Z,2.45
2022-07-27T08:58:47.044Z,4.78
2022-07-27T09:01:14.657Z,4.63
2022-07-27T09:03:41.631Z,4.68
2022-07-27T09:06:08.590Z,5.40
2022-07-27T09:08:38.371Z,4.20
2022-07-27T09:11:16.204Z,4.95
2022-07-27T09:13:43.174Z,5.38
2022-07-27T09:16:20.105Z,3.25
2022-07-27T09:18:48.280Z,4.35
2022-07-27T09:21:20.884Z,6.30
2022-07-27T09:23:53.912Z,3.58
2022-07-27T09:26:33.788Z,4.30
2022-07-27T09:29:13.884Z,4.90
2022-07-27T09:31:53.284Z,4.38
2022-07-27T09:34:32.609Z,3.55
2022-07-27T09:37:00.842Z,3.05
2022-07-27T09:39:32.658Z,4.53
2022-07-27T09:42:02.657Z,5.03
2022-07-27T09:44:43.748Z,5.00
2022-07-27T09:47:21.000Z,5.20
2022-07-27T09:49:48.243Z,2.78
2022-07-27T09:52:27.594Z,3.17
2022-07-27T09:54:55.334Z,5.00
2022-07-27T09:57:22.748Z,5.00
2022-07-27T10:00:08.178Z,5.20
2022-07-27T10:02:35.363Z,3.15
2022-07-27T10:05:02.496Z,5.20
2022-07-27T10:07:30.257Z,4.00
2022-07-27T10:09:57.857Z,3.40
2022-07-27T10:12:24.711Z,4.50
2022-07-27T10:14:51.512Z,4.50
2022-07-27T10:17:19.222Z,3.60
2022-07-27T10:19:50.574Z,5.25
2022-07-27T10:22:41.181Z,4.22
2022-07-27T10:25:08.336Z,5.13
2022-07-27T10:27:35.614Z,12.77
2022-07-27T10:30:05.526Z,2.95
2022-07-27T10:32:33.857Z,5.55
2022-07-27T10:35:01.824Z,4.05
2022-07-27T10:37:34.649Z,3.00
2022-07-27T10:40:34.508Z,3.13
2022-07-27T10:43:22.119Z,4.90
2022-07-27T10:46:01.958Z,4.03
2022-07-27T10:48:48.287Z,5.82
2022-07-27T10:51:17.128Z,3.20
2022-07-27T10:56:48.520Z,2.63
2022-07-27T10:59:57.789Z,3.25
2022-07-27T11:02:38.757Z,2.80
2022-07-27T11:05:06.271Z,3.47
2022-07-27T11:07:44.411Z,4.53
2022-07-27T11:10:13.112Z,3.42
2022-07-27T11:12:40.813Z,4.22
2022-07-27T11:15:07.971Z,6.65
2022-07-27T11:20:24.767Z,4.95
2022-07-27T11:23:40.708Z,7.72
2022-07-27T11:25:39.639Z,5.07
2022-07-27T11:28:09.806Z,3.40
2022-07-27T11:30:37.239Z,4.47
2022-07-27T11:33:05.069Z,4.60
2022-07-27T11:35:31.984Z,3.63
2022-07-27T11:38:05.101Z,4.28
2022-07-27T11:40:56.203Z,2.60
2022-07-27T11:43:39.113Z,2.33
2022-07-27T11:46:24.980Z,4.30
2022-07-27T11:49:09.739Z,6.50
2022-07-27T11:51:38.466Z,3.70
2022-07-27T11:54:12.021Z,4.13
2022-07-27T11:56:43.519Z,3.30
2022-07-27T11:59:15.368Z,3.03
2022-07-27T12:01:51.806Z,2.50
2022-07-27T12:04:23.703Z,2.92
2022-07-27T12:07:11.574Z,2.75
2022-07-27T12:09:54.438Z,6.78
2022-07-27T12:12:26.235Z,2.90
2022-07-27T12:14:57.306Z,3.47
2022-07-27T12:17:38.180Z,3.15
2022-07-27T12:20:08.275Z,3.65
2022-07-27T12:22:46.072Z,2.72
2022-07-27T12:25:19.497Z,5.10
2022-07-27T12:28:01.406Z,4.15
2022-07-27T12:30:31.311Z,2.40
2022-07-27T12:32:58.813Z,6.80
2022-07-27T12:35:34.294Z,2.47
2022-07-27T12:38:08.787Z,1.95
2022-07-27T12:40:45.580Z,1.80
2022-07-27T12:43:17.350Z,4.03
2022-07-27T12:45:44.475Z,4.47
2022-07-27T12:48:16.562Z,2.38
2022-07-27T12:50:48.595Z,2.10
2022-07-27T12:53:16.818Z,1.73
2022-07-27T12:55:44.625Z,4.18
2022-07-27T12:58:14.309Z,3.38
2022-07-27T13:00:41.734Z,4.20
2022-07-27T13:03:08.765Z,4.10
2022-07-27T13:05:37.011Z,4.68
2022-07-27T13:08:04.889Z,4.38
2022-07-27T13:10:32.448Z,2.63
2022-07-27T13:12:59.391Z,2.80
2022-07-27T13:15:26.610Z,3.90
2022-07-27T13:17:53.620Z,3.83
2022-07-27T13:20:20.849Z,5.00
2022-07-27T13:22:47.963Z,2.65
2022-07-27T13:25:17.285Z,6.30
2022-07-27T13:27:48.855Z,6.32
2022-07-27T13:30:18.040Z,2.42
2022-07-27T13:32:46.922Z,4.85
2022-07-27T13:35:16.630Z,3.92
2022-07-27T13:37:44.713Z,2.47
2022-07-27T13:40:12.169Z,4.55
2022-07-27T13:42:39.051Z,3.15
2022-07-27T13:45:10.520Z,2.15
2022-07-27T13:47:42.552Z,3.95
2022-07-27T13:50:17.716Z,2.45
2022-07-27T13:52:46.863Z,3.30
2022-07-27T13:55:15.082Z,3.08
2022-07-27T13:57:42.268Z,3.25
2022-07-27T14:00:09.649Z,7.50
2022-07-27T14:02:36.581Z,4.97
2022-07-27T14:05:04.356Z,3.90
2022-07-27T14:07:33.245Z,4.18
2022-07-27T14:10:18.589Z,6.63
2022-07-27T14:12:45.404Z,5.03
2022-07-27T14:15:12.319Z,3.55
2022-07-27T14:17:39.249Z,2.13
2022-07-27T14:20:07.020Z,3.08
2022-07-27T14:22:33.891Z,2.25
2022-07-27T14:25:00.727Z,3.50
2022-07-27T14:27:36.067Z,3.03
2022-07-27T14:30:09.388Z,2.67
2022-07-27T14:32:36.937Z,2.10
2022-07-27T14:35:05.050Z,4.85
2022-07-27T14:37:34.198Z,3.45
2022-07-27T14:40:01.630Z,3.78
2022-07-27T14:42:28.543Z,3.88
2022-07-27T14:44:55.541Z,2.65
2022-07-27T14:47:23.111Z,1.42
2022-07-27T14:49:50.230Z,3.47
2022-07-27T14:52:21.151Z,1.40
2022-07-27T14:54:49.413Z,3.50
2022-07-27T14:57:16.787Z,4.50
2022-07-27T14:59:44.240Z,2.42
2022-07-27T15:02:11.612Z,2.20
2022-07-27T15:04:38.622Z,1.88
2022-07-27T15:07:05.565Z,2.05
2022-07-27T15:09:32.962Z,3.08
2022-07-27T15:12:02.872Z,2.53
2022-07-27T15:14:29.806Z,3.72
2022-07-27T15:16:59.652Z,2.47
2022-07-27T15:19:26.520Z,3.65
2022-07-27T15:21:53.480Z,4.15
2022-07-27T15:24:20.471Z,2.22
2022-07-27T15:26:47.804Z,2.53
2022-07-27T15:29:15.765Z,3.50
2022-07-27T15:31:43.443Z,3.88
2022-07-27T15:34:10.570Z,8.18
2022-07-27T15:36:45.940Z,1.75
2022-07-27T15:39:20.779Z,1.98
2022-07-27T15:41:47.920Z,3.85
2022-07-27T15:44:19.867Z,3.70
2022-07-27T15:46:47.931Z,3.97
2022-07-27T15:49:15.371Z,2.25
2022-07-27T15:51:42.531Z,3.60
2022-07-27T15:54:09.446Z,5.93
2022-07-27T15:56:36.335Z,3.17
2022-07-27T15:59:03.274Z,4.80
2022-07-27T16:01:35.324Z,3.17
2022-07-27T16:04:04.075Z,3.33
2022-07-27T16:06:38.558Z,2.33
2022-07-27T16:09:06.676Z,4.53
2022-07-27T16:14:17.445Z,4.65
2022-07-27T16:16:44.759Z,1.98
2022-07-27T16:19:14.077Z,2.53
2022-07-27T16:21:54.004Z,1.30
2022-07-27T16:24:23.366Z,4.45
2022-07-27T16:26:50.689Z,5.22
2022-07-27T16:29:18.288Z,3.15
2022-07-27T16:31:45.361Z,3.05
2022-07-27T16:34:12.330Z,2.53
2022-07-27T16:36:39.501Z,2.28
2022-07-27T16:39:06.592Z,2.90
2022-07-27T16:41:33.452Z,2.85
2022-07-27T16:44:00.376Z,4.45
2022-07-27T16:46:27.579Z,4.45
2022-07-27T16:48:54.559Z,3.90
2022-07-27T16:51:21.433Z,1.92
2022-07-27T16:53:49.043Z,2.60
2022-07-27T16:56:16.832Z,2.60
2022-07-27T16:58:44.645Z,3.72
2022-07-27T17:01:15.143Z,2.72
2022-07-27T17:03:49.674Z,2.60
2022-07-27T17:06:17.158Z,3.00
2022-07-27T17:08:44.692Z,3.20
2022-07-27T17:11:12.823Z,3.38
2022-07-27T17:13:41.004Z,3.90
2022-07-27T17:16:16.137Z,2.60
2022-07-27T17:18:43.073Z,3.08
2022-07-27T17:21:12.770Z,2.17
2022-07-27T17:23:41.166Z,2.33
2022-07-27T17:26:09.300Z,4.47
2022-07-27T17:28:40.112Z,4.47
2022-07-27T17:31:09.981Z,3.40
2022-07-27T17:33:38.649Z,2.47
2022-07-27T17:36:10.863Z,4.13
2022-07-27T17:38:42.718Z,1.70
2022-07-27T17:41:09.798Z,3.00
2022-07-27T17:43:38.782Z,3.73
2022-07-27T17:46:07.499Z,2.20
2022-07-27T17:48:35.613Z,3.73
2022-07-27T17:51:03.065Z,3.67
2022-07-27T17:53:30.692Z,2.30
2022-07-27T17:55:58.045Z,1.97
2022-07-27T17:58:30.401Z,3.70
2022-07-27T18:00:57.707Z,2.50
2022-07-27T18:03:24.624Z,2.90
2022-07-27T18:05:51.659Z,3.80
2022-07-27T18:08:18.916Z,2.63
2022-07-27T18:10:45.815Z,2.60
2022-07-27T18:13:12.776Z,2.43
2022-07-27T18:15:48.946Z,3.77
2022-07-27T18:18:23.298Z,5.57
2022-07-27T18:20:54.770Z,4.63
2022-07-27T18:23:26.547Z,4.87
2022-07-27T18:25:53.964Z,6.53
2022-07-27T18:28:21.299Z,3.50
2022-07-27T18:30:50.100Z,2.57
2022-07-27T18:33:17.811Z,3.53
2022-07-27T18:35:46.343Z,6.97
2022-07-27T18:38:14.603Z,4.00
2022-07-27T18:40:45.616Z,4.67
2022-07-27T18:43:13.490Z,3.57
2022-07-27T18:45:41.139Z,2.80
2022-07-27T18:48:10.073Z,5.80
2022-07-27T18:50:39.574Z,5.33
2022-07-27T18:53:07.171Z,3.77
2022-07-27T18:55:34.106Z,3.43
2022-07-27T18:58:01.005Z,3.60
2022-07-27T19:00:28.357Z,3.70
2022-07-27T19:02:58.181Z,2.73
2022-07-27T19:05:32.540Z,4.47
2022-07-27T19:08:13.455Z,3.93
2022-07-27T19:10:42.526Z,4.27
2022-07-27T19:13:11.118Z,2.67
2022-07-27T19:15:39.014Z,6.47
2022-07-27T19:18:07.054Z,5.77
2022-07-27T19:20:34.493Z,5.33
2022-07-27T19:23:01.685Z,7.13
2022-07-27T19:25:30.586Z,4.67
2022-07-27T19:27:58.265Z,3.27
2022-07-27T19:30:25.227Z,4.87
2022-07-27T19:32:52.073Z,9.87
2022-07-27T19:35:19.258Z,6.13
2022-07-27T19:37:46.133Z,3.93
2022-07-27T19:40:43.544Z,4.37
2022-07-27T19:43:00.691Z,3.50
2022-07-27T19:45:27.573Z,6.23
2022-07-27T19:47:54.505Z,5.03
2022-07-27T19:50:26.316Z,8.50
2022-07-27T19:52:53.613Z,5.33
2022-07-27T19:55:20.707Z,7.80
2022-07-27T19:57:47.658Z,9.73
2022-07-27T20:00:14.998Z,6.90
2022-07-27T20:02:41.985Z,6.73
2022-07-27T20:05:09.078Z,5.23
2022-07-27T20:07:37.192Z,4.50
2022-07-27T20:10:06.417Z,5.50
2022-07-27T20:12:33.753Z,6.33
2022-07-27T20:15:00.935Z,6.50
2022-07-27T20:17:27.969Z,8.77
2022-07-27T20:19:54.826Z,5.97
2022-07-27T20:22:25.021Z,6.80
2022-07-27T20:24:52.768Z,7.57
2022-07-27T20:27:22.238Z,6.50
2022-07-27T20:29:49.429Z,5.80
2022-07-27T20:32:16.451Z,5.10
2022-07-27T20:34:43.960Z,5.13
2022-07-27T20:37:10.787Z,7.90
2022-07-27T20:39:38.204Z,4.10
2022-07-27T20:42:05.101Z,3.80
2022-07-27T20:44:31.949Z,7.27
2022-07-27T20:46:58.920Z,6.67
2022-07-27T20:49:25.947Z,3.57
2022-07-27T20:51:52.879Z,6.63
2022-07-27T20:54:19.692Z,7.90
2022-07-27T20:56:56.926Z,4.73
2022-07-27T20:59:24.186Z,3.10
2022-07-27T21:01:52.935Z,5.03
2022-07-27T21:04:20.608Z,5.47
2022-07-27T21:06:47.772Z,3.33
2022-07-27T21:09:15.294Z,5.60
2022-07-27T21:11:42.509Z,2.60
2022-07-27T21:14:09.733Z,5.67
2022-07-27T21:16:37.545Z,6.60
2022-07-27T21:19:04.919Z,4.90
2022-07-27T21:21:31.994Z,5.13
2022-07-27T21:24:18.319Z,4.83
2022-07-27T21:26:48.555Z,5.07
2022-07-27T21:29:16.052Z,6.07
2022-07-27T21:31:46.829Z,6.87
2022-07-27T21:34:17.055Z,4.03
2022-07-27T21:36:45.417Z,4.03
2022-07-27T21:39:12.585Z,5.47
2022-07-27T21:41:39.532Z,2.47
2022-07-27T21:44:06.751Z,4.07
2022-07-27T21:46:33.735Z,5.77
2022-07-27T21:49:00.786Z,6.20
2022-07-27T21:51:27.713Z,4.73
2022-07-27T21:53:54.742Z,1.93
2022-07-27T21:56:21.667Z,3.87
2022-07-27T21:58:49.027Z,5.57
2022-07-27T22:01:17.069Z,3.83
2022-07-27T22:03:44.614Z,5.37
2022-07-27T22:06:11.775Z,4.13
2022-07-27T22:08:38.744Z,4.07
2022-07-27T22:11:06.214Z,6.30
2022-07-27T22:13:33.231Z,3.93
2022-07-27T22:16:03.055Z,6.03
2022-07-27T22:18:30.038Z,4.00
2022-07-27T22:20:57.813Z,3.27
2022-07-27T22:23:24.968Z,3.30
2022-07-27T22:25:52.190Z,5.27
2022-07-27T22:28:19.351Z,5.07
2022-07-27T22:30:59.668Z,4.13
2022-07-27T22:33:37.617Z,3.97
2022-07-27T22:36:06.924Z,3.57
2022-07-27T22:38:34.093Z,6.47
2022-07-27T22:41:00.897Z,6.67
2022-07-27T22:43:28.368Z,5.23
2022-07-27T22:45:57.147Z,2.30
2022-07-27T22:48:24.124Z,4.67
2022-07-27T22:50:51.073Z,5.30
2022-07-27T22:53:18.295Z,2.67
2022-07-27T22:55:45.168Z,4.57
2022-07-27T22:58:11.997Z,6.10
2022-07-27T23:00:39.129Z,1.67
2022-07-27T23:03:06.015Z,3.53
2022-07-27T23:05:33.737Z,2.33
2022-07-27T23:08:03.885Z,5.90
2022-07-27T23:10:45.824Z,4.47
2022-07-27T23:13:20.126Z,4.23
2022-07-27T23:15:47.613Z,2.47
2022-07-27T23:18:15.312Z,2.10
2022-07-27T23:20:42.407Z,3.40
2022-07-27T23:23:15.369Z,4.13
2022-07-27T23:25:44.385Z,2.33
2022-07-27T23:28:11.470Z,5.33
2022-07-27T23:30:38.352Z,5.63
2022-07-27T23:33:05.376Z,6.50
2022-07-27T23:35:32.469Z,4.43
2022-07-27T23:38:00.325Z,3.40
2022-07-27T23:40:27.535Z,5.90
2022-07-27T23:42:54.744Z,5.43
2022-07-27T23:45:21.660Z,7.17
2022-07-27T23:47:48.515Z,3.57
2022-07-27T23:50:15.473Z,3.27
2022-07-27T23:52:42.326Z,3.03
2022-07-27T23:55:09.718Z,4.93
2022-07-27T23:57:36.549Z,4.53
